West Fort Ann, New York
Current Conditions -  °F | °C
As of 10:53 AM on Monday 26 Jan 2015 (Local Time) from KGFL Reporting Station
Overcast Overcast  
Wind Chill: -2°   Ceiling: 7500
Heat Index: 12°   Visibility: 10mi
Dew Point:   Wind: 12mph
Humidity: 59%   Direction: 350°N
Pressure: 30.13"   Gusts: NA
Location:  43.4639°N, 73.5204°W
Report Text: KGFL 261553Z AUTO 35010KT 10SM BKN075 OVC090 M11/M18 A3013 RMK AO2 SLP216 T11111178
Loading
Personal Weather Stations






























Interactive Weather Map New forecast layout! Learn more

10-Day Weather Forecast

Advertisements
Track Severe Weather on mobile